Latest Weather Observations for Scone Airport

IDN60801

Issued at 8:03 pm EST Tuesday 26 July 2016 (issued every 30 minutes, with the page automatically refreshed every 10 minutes)

About weather observations | Map of weather stations | Latest weather observations for NSW | Other Formats
Station Details ID: 061363 Name: SCONE AIRPORT AWS Lat: -32.03 Lon: 150.83 Height: 221.4 m
Data from the previous 72 hours. | See also: Recent months at Scone Airport
Date/Time
EST
Temp
°C
App
Temp
°C
Dew
Point
°C
Rel
Hum
%
Delta-T
°C
Wind Press
QNH
hPa
Press
MSL
hPa
Rain since
9am
mm
Dir  Spd
km/h
Gust
km/h
Spd
kts
Gust
kts
26/08:00pm 11.5 8.8 5.6 67 2.8 NW 9 13 5 7 1016.8 1017.0 0.0
26/07:30pm 11.7 8.6 5.6 66 2.9 WNW 11 13 6 7 1016.7 1016.9 0.0
26/07:00pm 12.7 10.3 5.1 60 3.6 NNW 7 15 4 8 1016.3 1016.6 0.0
26/06:30pm 12.6 11.5 5.3 61 3.4 CALM 0 0 0 0 1016.1 1016.4 0.0
26/06:00pm 13.5 11.3 5.4 58 3.8 NW 6 7 3 4 1016.0 1016.3 0.0
26/05:30pm 14.1 10.7 5.7 57 4.0 NW 13 17 7 9 1015.6 1015.9 0.0
26/05:00pm 15.1 12.6 6.4 56 4.3 NW 9 17 5 9 1015.3 1015.6 0.0
26/04:30pm 15.5 11.2 5.4 51 4.9 NW 17 24 9 13 1015.2 1015.4 0.0
26/04:00pm 15.9 12.3 5.2 49 5.1 N 13 20 7 11 1015.1 1015.3 0.0
26/03:30pm 16.2 12.0 5.5 49 5.2 NNW 17 26 9 14 1015.3 1015.6 0.0
26/03:00pm 16.4 11.5 5.1 47 5.4 NNW 20 32 11 17 1015.4 1015.7 0.0
26/02:30pm 16.4 10.9 6.0 50 5.1 NW 24 33 13 18 1015.5 1015.8 0.0
26/02:00pm 16.3 11.1 5.6 49 5.2 NW 22 32 12 17 1015.6 1015.9 0.0
26/01:30pm 15.9 11.0 5.2 49 5.1 NW 20 30 11 16 1015.8 1016.1 0.0
26/01:00pm 15.7 10.8 5.0 49 5.1 NW 20 30 11 16 1016.2 1016.5 0.0
26/12:30pm 14.9 8.8 4.6 50 4.9 NNW 26 37 14 20 1016.7 1016.9 0.0
26/12:00pm 14.9 9.8 4.3 49 5.0 NW 20 28 11 15 1017.1 1017.3 0.0
26/11:30am 14.5 9.4 4.2 50 4.8 NNW 20 28 11 15 1017.5 1017.7 0.0
26/11:00am 14.1 8.9 3.8 50 4.7 NNW 20 28 11 15 1017.9 1018.1 0.0
26/10:30am 14.0 8.9 4.0 51 4.6 NNW 20 33 11 18 1018.1 1018.3 0.0
26/10:00am 13.7 9.1 3.5 50 4.6 NW 17 26 9 14 1018.4 1018.6 0.0
26/09:30am 13.7 9.9 3.8 51 4.5 NNW 13 20 7 11 1018.7 1018.9 0.0
26/09:00am 12.8 9.0 3.7 54 4.1 N 13 28 7 15 1018.6 1018.8 0.0
26/08:30am 11.0 7.2 4.0 62 3.2 NE 13 17 7 9 1018.8 1019.0 0.0
26/08:00am 9.4 6.4 4.0 69 2.4 NNE 9 15 5 8 1019.0 1019.2 0.0
26/07:30am 7.0 4.1 2.7 74 1.8 N 7 11 4 6 1018.9 1019.1 0.0
26/07:00am 5.8 2.8 1.9 76 1.6 NNE 7 11 4 6 1018.8 1019.0 0.0
26/06:30am 6.5 3.2 2.4 75 1.7 NNE 9 11 5 6 1018.5 1018.7 0.0
26/06:00am 6.6 3.7 2.7 76 1.6 NNE 7 11 4 6 1018.3 1018.5 0.0
26/05:30am 4.8 1.8 1.8 81 1.2 NE 7 9 4 5 1018.4 1018.6 0.0
26/05:00am 5.0 2.0 1.8 80 1.3 ENE 7 9 4 5 1018.1 1018.3 0.0
26/04:30am 6.0 3.0 1.9 75 1.7 NNE 7 13 4 7 1017.9 1018.1 0.0
26/04:00am 7.2 3.9 2.5 72 2.0 NNE 9 17 5 9 1017.8 1018.0 0.0
26/03:30am 7.2 3.9 2.5 72 2.0 NNE 9 13 5 7 1017.8 1018.0 0.0
26/03:00am 7.1 4.4 2.4 72 2.0 ENE 6 9 3 5 1017.8 1018.0 0.0
26/02:30am 6.2 3.8 2.1 75 1.7 ENE 4 7 2 4 1017.7 1017.9 0.0
26/02:00am 5.6 3.8 1.3 74 1.7 CALM 0 0 0 0 1017.7 1017.9 0.0
26/01:30am 7.3 5.0 3.0 74 1.8 N 4 7 2 4 1018.1 1018.3 0.0
26/01:00am 5.8 2.5 2.3 78 1.4 ENE 9 11 5 6 1018.3 1018.5 0.0
26/12:30am 6.1 2.6 1.4 72 1.9 NE 9 15 5 8 1018.3 1018.5 0.0
26/12:00am 8.6 5.4 2.8 67 2.5 NNE 9 15 5 8 1018.4 1018.6 0.0
 
Date/Time
EST
Temp
°C
App
Temp
°C
Dew
Point
°C
Rel
Hum
%
Delta-T
°C
Wind Press
QNH
hPa
Press
MSL
hPa
Rain since
9am
mm
Dir  Spd
km/h
Gust
km/h
Spd
kts
Gust
kts
25/11:30pm 9.0 5.7 2.6 64 2.7 N 9 13 5 7 1018.2 1018.4 0.0
25/11:00pm 8.0 5.0 1.8 65 2.6 NW 7 11 4 6 1018.0 1018.2 0.0
25/10:30pm 8.4 4.6 2.0 64 2.7 NW 11 15 6 8 1017.9 1018.1 0.0
25/10:00pm 9.6 5.8 2.0 59 3.2 NNW 11 13 6 7 1017.5 1017.7 0.0
25/09:30pm 9.7 5.9 1.6 57 3.4 N 11 13 6 7 1017.4 1017.6 0.0
25/09:00pm 9.5 6.0 1.2 56 3.5 NW 9 13 5 7 1017.5 1017.7 0.0
25/08:30pm 10.0 6.1 0.9 53 3.8 NW 11 17 6 9 1017.4 1017.6 0.0
25/08:00pm 11.0 7.1 1.0 50 4.2 NNW 11 15 6 8 1017.3 1017.5 0.0
25/07:30pm 10.9 7.0 1.2 51 4.1 NNW 11 17 6 9 1017.3 1017.5 0.0
25/07:00pm 11.0 7.5 1.3 51 4.1 NNW 9 13 5 7 1017.0 1017.2 0.0
25/06:30pm 10.5 7.7 1.9 55 3.7 NW 6 11 3 6 1016.7 1016.9 0.0
25/06:00pm 10.7 7.0 2.3 56 3.6 NW 11 13 6 7 1016.2 1016.5 0.0
25/05:30pm 11.0 7.4 3.1 58 3.5 NW 11 15 6 8 1015.6 1015.9 0.0
25/05:00pm 12.6 9.5 3.8 55 4.0 NW 9 15 5 8 1015.4 1015.7 0.0
25/04:30pm 14.1 10.7 4.1 51 4.6 NW 11 17 6 9 1015.2 1015.4 0.0
25/04:00pm 14.2 9.2 3.7 49 4.8 W 19 22 10 12 1015.2 1015.4 0.0
25/03:30pm 14.7 9.5 3.8 48 5.0 W 20 28 11 15 1015.1 1015.3 0.0
25/03:00pm 15.3 10.1 3.5 45 5.4 W 20 30 11 16 1015.1 1015.3 0.0
25/02:30pm 15.6 10.5 4.3 47 5.3 W 20 28 11 15 1015.3 1015.6 0.0
25/02:00pm 15.3 9.8 3.8 46 5.3 W 22 35 12 19 1015.5 1015.8 0.0
25/01:30pm 15.2 8.9 3.7 46 5.3 W 26 37 14 20 1015.4 1015.7 0.0
25/01:00pm 14.7 8.1 4.1 49 4.9 W 28 35 15 19 1015.7 1016.0 0.0
25/12:30pm 13.8 8.6 3.6 50 4.7 WNW 20 28 11 15 1016.1 1016.4 0.0
25/12:00pm 13.7 8.7 3.8 51 4.5 NNW 19 28 10 15 1016.2 1016.5 0.0
25/11:30am 14.1 9.1 4.7 53 4.4 NW 20 32 11 17 1016.7 1016.9 0.0
25/11:00am 13.3 7.7 3.4 51 4.5 NW 22 32 12 17 1016.8 1017.0 0.0
25/10:30am 12.1 6.9 3.3 55 3.9 WNW 20 28 11 15 1017.0 1017.2 0.0
25/10:00am 12.2 6.2 3.4 55 3.9 WNW 24 44 13 24 1016.9 1017.1 0.0
25/09:30am 12.0 6.8 3.5 56 3.8 NW 20 33 11 18 1017.1 1017.3 0.0
25/09:00am 12.0 6.8 3.5 56 3.8 NNW 20 32 11 17 1017.1 1017.3 0.0
25/08:30am 11.2 6.0 3.5 59 3.4 NNW 20 28 11 15 1016.9 1017.1 0.0
25/08:00am 10.0 5.5 4.2 67 2.6 NW 17 26 9 14 1017.0 1017.2 0.0
25/07:30am 8.3 4.5 3.9 74 1.9 NW 13 19 7 10 1016.7 1016.9 0.0
25/07:00am 7.8 4.0 3.7 75 1.8 NW 13 19 7 10 1016.1 1016.4 0.0
25/06:30am 7.8 4.0 3.7 75 1.8 WNW 13 19 7 10 1015.6 1015.9 0.0
25/06:00am 9.2 5.0 4.0 70 2.3 NW 15 20 8 11 1015.1 1015.3 0.0
25/05:30am 9.1 5.0 4.1 71 2.2 NW 15 20 8 11 1014.8 1015.0 0.0
25/05:00am 9.2 5.0 4.0 70 2.3 NW 15 22 8 12 1014.7 1014.9 0.0
25/04:30am 10.1 5.2 4.3 67 2.6 NW 19 26 10 14 1014.3 1014.5 0.0
25/04:00am 10.5 5.4 4.2 65 2.8 NW 20 32 11 17 1014.0 1014.2 0.0
25/03:30am 9.9 5.4 4.3 68 2.5 NW 17 24 9 13 1013.9 1014.1 0.0
25/03:00am 10.2 5.3 4.1 66 2.7 NW 19 28 10 15 1013.9 1014.1 0.0
25/02:30am 9.8 4.3 4.0 67 2.6 NW 22 32 12 17 1014.0 1014.2 0.0
25/02:00am 10.3 2.9 4.0 65 2.8 NNW 32 44 17 24 1014.0 1014.2 0.0
25/01:30am 10.1 4.7 4.3 67 2.6 NW 22 30 12 16 1014.2 1014.4 0.0
25/01:00am 10.1 4.9 3.6 64 2.9 NW 20 32 11 17 1014.1 1014.3 0.0
25/12:30am 10.5 5.3 3.5 62 3.1 NNW 20 28 11 15 1014.2 1014.4 0.0
25/12:00am 10.5 4.5 3.5 62 3.1 NNW 24 33 13 18 1014.3 1014.5 0.0
 
Date/Time
EST
Temp
°C
App
Temp
°C
Dew
Point
°C
Rel
Hum
%
Delta-T
°C
Wind Press
QNH
hPa
Press
MSL
hPa
Rain since
9am
mm
Dir  Spd
km/h
Gust
km/h
Spd
kts
Gust
kts
24/11:30pm 10.2 5.4 2.8 60 3.2 NNW 17 24 9 13 1014.6 1014.8 0.0
24/11:00pm 10.4 5.7 3.0 60 3.2 NW 17 22 9 12 1014.6 1014.8 0.0
24/10:30pm 10.3 6.7 2.9 60 3.2 NNW 11 17 6 9 1014.7 1014.9 0.0
24/10:00pm 10.3 5.8 2.2 57 3.5 NNW 15 20 8 11 1014.8 1015.0 0.0
24/09:30pm 10.5 5.6 2.1 56 3.6 NNW 17 24 9 13 1015.1 1015.3 0.0
24/09:00pm 10.1 6.4 2.2 58 3.4 NNW 11 15 6 8 1015.3 1015.6 0.0
24/08:30pm 10.0 6.3 2.4 59 3.3 NNW 11 20 6 11 1015.5 1015.8 0.0
24/08:00pm 10.0 5.9 2.4 59 3.3 NNW 13 17 7 9 1015.4 1015.7 0.0
24/07:30pm 8.6 5.9 2.8 67 2.5 NNW 6 11 3 6 1015.3 1015.6 0.0
24/07:00pm 8.2 5.4 2.2 66 2.5 N 6 7 3 4 1015.0 1015.2 0.0
24/06:30pm 8.4 5.6 2.2 65 2.6 N 6 9 3 5 1014.6 1014.8 0.0
24/06:00pm 8.4 5.4 2.0 64 2.7 N 7 9 4 5 1014.0 1014.2 0.0
24/05:30pm 9.3 6.4 1.7 59 3.2 N 6 9 3 5 1014.0 1014.2 0.0
24/05:00pm 9.6 6.1 1.5 57 3.4 NNW 9 11 5 6 1013.8 1014.0 0.0
24/04:30pm 10.1 6.7 1.7 56 3.6 N 9 13 5 7 1013.7 1013.9 0.0
24/04:00pm 10.4 6.2 1.5 54 3.8 NNW 13 17 7 9 1013.9 1014.1 0.0
24/03:30pm 10.7 6.1 1.5 53 3.9 NNW 15 22 8 12 1013.9 1014.1 0.0
24/03:00pm 10.9 5.5 1.4 52 4.0 NW 19 26 10 14 1014.0 1014.2 0.0
24/02:30pm 11.4 7.2 1.4 50 4.3 NW 13 19 7 10 1013.9 1014.1 0.0
24/02:00pm 11.7 7.0 0.8 47 4.6 NW 15 19 8 10 1014.0 1014.2 0.0
24/01:30pm 11.0 6.3 0.7 49 4.3 NW 15 20 8 11 1013.8 1014.0 0.0
24/01:00pm 11.0 5.7 -0.8 44 4.8 WNW 17 22 9 12 1014.6 1014.8 0.0
24/12:30pm 11.1 6.0 -2.0 40 5.2 WNW 15 20 8 11 1015.6 1015.9 0.0
24/12:00pm 10.5 5.5 -0.9 45 4.6 W 15 22 8 12 1016.7 1016.9 0.0
24/11:30am 10.2 4.3 -2.1 42 4.8 WNW 19 24 10 13 1017.2 1017.4 0.0
24/11:00am 10.1 4.4 -0.7 47 4.3 W 19 24 10 13 1017.6 1017.8 0.0
24/10:30am 9.8 4.8 -1.0 47 4.3 WNW 15 20 8 11 1017.7 1017.9 0.0
24/10:00am 9.4 5.8 0.3 53 3.7 WNW 9 13 5 7 1017.7 1017.9 0.0
24/09:30am 9.2 6.8 1.9 60 3.1 N 4 9 2 5 1017.7 1017.9 0.0
24/09:00am 7.4 5.8 2.3 70 2.1 CALM 0 6 0 3 1017.2 1017.4 0.0
24/08:30am 7.2 4.2 1.7 68 2.3 NNW 7 11 4 6 1017.0 1017.2 0.0
24/08:00am 6.2 3.2 1.1 70 2.0 NW 6 9 3 5 1016.4 1016.7 0.0
24/07:30am 5.3 2.9 2.1 80 1.3 N 4 7 2 4 1016.3 1016.6 0.0
24/07:00am 4.0 1.0 1.0 81 1.2 NW 6 7 3 4 1016.1 1016.4 0.0
24/06:30am 4.0 1.1 1.2 82 1.1 N 6 9 3 5 1015.7 1016.0 0.0
24/06:00am 3.7 0.7 0.8 81 1.1 NNW 6 9 3 5 1015.7 1016.0 0.0
24/05:30am 4.3 1.1 0.8 78 1.4 NNE 7 9 4 5 1015.7 1016.0 0.0
24/05:00am 5.2 2.1 0.4 71 1.9 NNW 6 9 3 5 1015.5 1015.8 0.0
24/04:30am 6.1 2.9 0.6 68 2.2 NW 7 9 4 5 1016.0 1016.3 0.0
24/04:00am 6.9 3.6 0.1 62 2.7 NW 7 7 4 4 1015.5 1015.8 0.0
24/03:30am 7.2 3.8 -0.3 59 2.9 NNW 7 9 4 5 1015.4 1015.7 0.0
24/03:00am 7.8 3.8 0.3 59 3.0 NW 11 15 6 8 1015.3 1015.6 0.0
24/02:30am 7.6 3.2 0.6 61 2.8 NW 13 17 7 9 1015.6 1015.9 0.0
24/02:00am 7.9 4.0 0.9 61 2.8 NW 11 15 6 8 1015.8 1016.1 0.0
24/01:30am 8.6 4.6 0.8 58 3.2 NW 11 17 6 9 1015.7 1016.0 0.0
24/01:00am 8.4 4.4 0.6 58 3.2 NW 11 20 6 11 1015.6 1015.9 0.0
24/12:30am 9.2 3.5 0.6 55 3.5 WNW 20 33 11 18 1015.8 1016.1 0.0
24/12:00am 9.0 4.3 1.2 58 3.2 WNW 15 24 8 13 1015.6 1015.9 0.0
 
Date/Time
EST
Temp
°C
App
Temp
°C
Dew
Point
°C
Rel
Hum
%
Delta-T
°C
Wind Press
QNH
hPa
Press
MSL
hPa
Rain since
9am
mm
Dir  Spd
km/h
Gust
km/h
Spd
kts
Gust
kts
23/11:30pm 9.0 4.8 1.7 60 3.1 WNW 13 24 7 13 1015.8 1016.1 0.0
23/11:00pm 9.8 5.0 2.4 60 3.2 NW 17 24 9 13 1015.6 1015.9 0.0
23/10:30pm 10.0 5.9 2.4 59 3.3 NW 13 20 7 11 1015.4 1015.7 0.0
23/10:00pm 9.7 5.2 2.3 60 3.2 NW 15 20 8 11 1014.9 1015.1 0.0
23/09:30pm 9.9 6.1 1.5 56 3.5 NNW 11 20 6 11 1014.9 1015.1 0.0
23/09:00pm 10.2 6.3 1.3 54 3.7 NNW 11 17 6 9 1014.6 1014.8 0.0
23/08:30pm 10.3 6.8 1.4 54 3.8 NNW 9 17 5 9 1014.2 1014.4 0.0

Other Formats:

Comma delimited format used in spreadsheet applications
http://www.bom.gov.au/fwo/IDN60801/IDN60801.95758.axf

JavaScript Object Notation format (JSON) in row-major order
http://www.bom.gov.au/fwo/IDN60801/IDN60801.95758.json